Time;durP1;ratioP1;P1;durP2;ratioP2;P2;SDS_P1;SDS_P2;PMS_P1;PMS_P2;Temp;Humidity;BMP_temperature;BMP_pressure;BME280_temperature;BME280_humidity;BME280_pressure;Samples;Min_cycle;Max_cycle;Signal;HPM_P1;HPM_P2
2022/08/01 00:02:24;;;;;;;1.48;0.73;;;16.50;99.90;;;;;;5048704;28;20229;-78
2022/08/01 00:04:57;;;;;;;0.75;0.60;;;16.60;99.90;;;;;;5043606;28;20193;-78
2022/08/01 00:07:28;;;;;;;0.68;0.50;;;16.70;99.90;;;;;;5050412;28;20199;-78
2022/08/01 00:09:59;;;;;;;2.55;0.38;;;16.80;99.90;;;;;;5048395;28;20232;-78
2022/08/01 00:12:29;;;;;;;0.40;0.40;;;16.90;99.90;;;;;;5050504;28;20202;-78
2022/08/01 00:15:00;;;;;;;1.05;0.50;;;17.00;99.90;;;;;;5048816;28;20205;-78
2022/08/01 00:17:33;;;;;;;3.17;0.70;;;17.20;99.90;;;;;;5040540;28;20232;-77
2022/08/01 00:20:04;;;;;;;0.60;0.45;;;17.30;99.90;;;;;;5049832;28;20204;-78
2022/08/01 00:22:35;;;;;;;0.57;0.35;;;17.50;99.90;;;;;;5050625;28;20663;-77
2022/08/01 00:25:07;;;;;;;1.30;0.50;;;17.50;99.90;;;;;;5050164;28;20192;-78
2022/08/01 00:27:38;;;;;;;0.63;0.30;;;17.60;99.90;;;;;;5050097;28;20185;-77
2022/08/01 00:30:10;;;;;;;1.42;0.40;;;17.70;99.90;;;;;;5049969;28;20227;-77
2022/08/01 00:32:43;;;;;;;0.55;0.40;;;17.80;99.90;;;;;;5041613;28;20192;-77
2022/08/01 00:35:14;;;;;;;0.73;0.40;;;17.90;99.90;;;;;;5041073;28;20259;-78
2022/08/01 00:37:44;;;;;;;3.50;0.50;;;17.90;99.90;;;;;;5043010;28;20201;-81
2022/08/01 00:40:15;;;;;;;0.30;0.30;;;18.00;99.90;;;;;;5040427;28;20204;-82
2022/08/01 00:42:46;;;;;;;2.55;0.70;;;18.10;99.90;;;;;;5043496;28;20264;-80
2022/08/01 00:45:18;;;;;;;1.42;0.60;;;18.10;99.90;;;;;;5041328;28;20223;-83
2022/08/01 00:47:51;;;;;;;0.60;0.40;;;18.20;99.90;;;;;;5043414;28;20196;-81
2022/08/01 00:50:21;;;;;;;0.85;0.50;;;18.40;99.90;;;;;;5043638;28;20557;-81
2022/08/01 00:52:53;;;;;;;0.40;0.40;;;18.50;99.90;;;;;;5047140;28;20193;-80
2022/08/01 00:55:23;;;;;;;0.85;0.50;;;18.60;99.90;;;;;;5049518;28;20200;-79
2022/08/01 00:57:55;;;;;;;1.05;0.50;;;18.60;99.90;;;;;;5042590;28;20212;-81
2022/08/01 01:00:26;;;;;;;0.50;0.40;;;18.70;99.90;;;;;;5049376;28;20208;-80
2022/08/01 01:02:59;;;;;;;1.25;0.40;;;18.80;99.90;;;;;;5041222;28;20571;-80
2022/08/01 01:05:29;;;;;;;1.02;0.50;;;18.90;99.90;;;;;;5045574;28;20185;-81
2022/08/01 01:08:05;;;;;;;0.40;0.30;;;19.00;99.90;;;;;;5033913;28;20199;-80
2022/08/01 01:10:43;;;;;;;2.83;0.38;;;19.00;99.90;;;;;;5030760;28;20213;-83
2022/08/01 01:13:19;;;;;;;0.47;0.40;;;19.00;99.90;;;;;;5035366;28;20214;-82
2022/08/01 01:15:54;;;;;;;1.95;0.40;;;19.10;99.90;;;;;;5034585;28;20203;-82
2022/08/01 01:18:32;;;;;;;0.30;0.30;;;19.10;99.90;;;;;;5031794;28;20307;-82
2022/08/01 01:21:12;;;;;;;0.95;0.30;;;19.10;99.90;;;;;;5032111;28;20200;-81
2022/08/01 01:23:56;;;;;;;0.68;0.38;;;19.20;99.90;;;;;;5034160;28;20197;-80
2022/08/01 01:26:41;;;;;;;1.10;0.40;;;19.30;99.90;;;;;;5031246;28;20542;-81
2022/08/01 01:29:19;;;;;;;0.85;0.40;;;19.40;99.90;;;;;;5032254;28;21894;-80
2022/08/01 01:31:54;;;;;;;0.45;0.40;;;19.40;99.90;;;;;;5033340;28;20260;-80
2022/08/01 01:34:26;;;;;;;0.57;0.38;;;19.50;99.90;;;;;;5030005;28;20573;-81
2022/08/01 01:37:01;;;;;;;0.40;0.40;;;19.60;99.90;;;;;;5029795;28;20194;-80
2022/08/01 01:39:33;;;;;;;0.82;0.50;;;19.60;99.90;;;;;;5033167;28;20251;-80
2022/08/01 01:42:07;;;;;;;0.30;0.30;;;19.70;99.90;;;;;;5027580;28;20220;-81
2022/08/01 01:44:40;;;;;;;0.70;0.40;;;19.70;99.90;;;;;;5027697;28;20221;-81
2022/08/01 01:47:11;;;;;;;0.40;0.40;;;19.70;99.90;;;;;;5029133;28;20217;-81
2022/08/01 01:49:44;;;;;;;0.52;0.52;;;19.80;99.90;;;;;;5035016;28;20587;-80
2022/08/01 01:52:18;;;;;;;0.77;0.45;;;19.90;99.90;;;;;;5038485;28;20224;-80
2022/08/01 01:54:52;;;;;;;2.03;0.65;;;19.90;99.90;;;;;;5029710;28;20739;-81
2022/08/01 01:57:24;;;;;;;0.60;0.40;;;20.00;99.90;;;;;;5030144;28;20217;-81
2022/08/01 01:59:58;;;;;;;0.85;0.60;;;20.10;99.90;;;;;;5030480;28;20343;-80
2022/08/01 02:02:29;;;;;;;0.45;0.45;;;20.00;99.90;;;;;;5030511;28;20197;-81
2022/08/01 02:05:03;;;;;;;0.57;0.43;;;20.10;99.90;;;;;;5037442;28;20203;-80
2022/08/01 02:07:34;;;;;;;0.28;0.28;;;19.90;99.90;;;;;;5033510;28;20196;-81
2022/08/01 02:10:08;;;;;;;0.50;0.40;;;19.80;99.90;;;;;;5036557;28;20202;-82
2022/08/01 02:12:41;;;;;;;0.80;0.50;;;19.90;99.90;;;;;;5039010;28;20201;-80
2022/08/01 02:15:16;;;;;;;1.80;0.57;;;19.90;99.90;;;;;;5033382;28;20205;-81
2022/08/01 02:17:51;;;;;;;0.80;0.43;;;19.90;99.90;;;;;;5033339;28;20227;-80
2022/08/01 02:20:21;;;;;;;0.73;0.60;;;19.80;99.90;;;;;;5031691;28;20196;-81
2022/08/01 02:22:54;;;;;;;0.45;0.45;;;19.70;99.90;;;;;;5033403;28;20193;-85
2022/08/01 02:25:29;;;;;;;2.13;0.43;;;19.60;99.90;;;;;;5041932;28;20246;-85
2022/08/01 02:28:07;;;;;;;2.35;0.40;;;19.40;99.90;;;;;;5035099;28;20234;-80
2022/08/01 02:30:44;;;;;;;0.60;0.60;;;19.40;99.90;;;;;;5038611;28;20236;-81
2022/08/01 02:33:20;;;;;;;0.95;0.43;;;19.30;99.90;;;;;;5035478;28;20228;-79
2022/08/01 02:35:54;;;;;;;0.88;0.47;;;19.30;99.90;;;;;;5035406;28;20280;-82
2022/08/01 02:38:27;;;;;;;0.60;0.60;;;19.40;99.90;;;;;;5035825;28;20208;-81
2022/08/01 02:41:01;;;;;;;0.68;0.50;;;19.60;99.90;;;;;;5036154;28;20204;-80
2022/08/01 02:43:33;;;;;;;2.20;0.50;;;19.70;99.90;;;;;;5035267;28;20185;-81
2022/08/01 02:46:07;;;;;;;0.68;0.38;;;19.70;99.90;;;;;;5033690;28;20213;-81
2022/08/01 02:48:41;;;;;;;0.90;0.50;;;19.80;99.90;;;;;;5035970;28;20681;-81
2022/08/01 02:51:13;;;;;;;1.15;0.45;;;20.00;99.90;;;;;;5032677;28;20274;-82
2022/08/01 02:53:46;;;;;;;1.30;0.60;;;20.10;99.90;;;;;;5034492;28;20315;-81
2022/08/01 02:56:17;;;;;;;0.88;0.60;;;20.30;99.90;;;;;;5033025;28;20204;-82
2022/08/01 02:58:50;;;;;;;0.75;0.47;;;20.40;99.90;;;;;;5035030;28;20213;-81
2022/08/01 03:01:24;;;;;;;0.93;0.63;;;20.50;99.90;;;;;;5035542;28;20197;-83
2022/08/01 03:03:55;;;;;;;0.57;0.57;;;20.50;99.90;;;;;;5035126;28;20569;-83
2022/08/01 03:06:27;;;;;;;1.25;0.60;;;20.50;99.90;;;;;;5039730;28;20196;-82
2022/08/01 03:08:59;;;;;;;0.80;0.50;;;20.50;99.90;;;;;;5032752;28;20205;-81
2022/08/01 03:11:32;;;;;;;0.90;0.52;;;20.60;99.90;;;;;;5036288;28;20220;-81
2022/08/01 03:14:06;;;;;;;0.85;0.40;;;20.70;99.90;;;;;;5033129;28;20723;-81
2022/08/01 03:16:41;;;;;;;0.55;0.40;;;20.80;99.90;;;;;;5034036;28;20679;-80
2022/08/01 03:19:13;;;;;;;0.40;0.40;;;20.80;99.90;;;;;;5031188;28;20267;-80
2022/08/01 03:21:45;;;;;;;0.93;0.60;;;20.90;99.90;;;;;;5037639;28;20200;-83
2022/08/01 03:24:17;;;;;;;0.68;0.50;;;21.00;99.90;;;;;;5035676;28;20284;-82
2022/08/01 03:26:49;;;;;;;0.88;0.57;;;20.80;99.90;;;;;;5034792;28;20222;-83
2022/08/01 03:29:24;;;;;;;0.95;0.50;;;20.90;99.90;;;;;;5036029;28;20237;-81
2022/08/01 03:31:57;;;;;;;0.45;0.35;;;20.90;99.90;;;;;;5034297;28;20276;-81
2022/08/01 03:34:28;;;;;;;0.30;0.30;;;21.10;99.90;;;;;;5031789;28;20201;-80
2022/08/01 03:37:09;;;;;;;1.05;0.50;;;21.00;99.90;;;;;;5032638;28;20657;-80
2022/08/01 03:39:46;;;;;;;1.67;0.68;;;20.80;98.50;;;;;;5032088;28;20193;-80
2022/08/01 03:42:21;;;;;;;1.00;0.63;;;20.60;98.80;;;;;;5037907;28;20204;-78
2022/08/01 03:45:02;;;;;;;1.10;0.60;;;20.40;99.60;;;;;;5031760;28;20211;-79
2022/08/01 03:47:37;;;;;;;3.00;0.65;;;20.40;99.20;;;;;;5034049;28;20225;-78
2022/08/01 03:50:12;;;;;;;0.95;0.65;;;20.50;98.70;;;;;;5032992;28;20935;-78
2022/08/01 03:52:47;;;;;;;2.42;0.50;;;20.50;99.10;;;;;;5038198;28;20231;-79
2022/08/01 03:55:19;;;;;;;0.90;0.68;;;20.60;96.60;;;;;;5038655;28;20197;-79
2022/08/01 03:57:52;;;;;;;0.70;0.50;;;20.50;96.40;;;;;;5030814;28;20204;-79
2022/08/01 04:00:24;;;;;;;1.15;0.52;;;20.50;95.80;;;;;;5030881;28;20193;-78
2022/08/01 04:02:57;;;;;;;0.68;0.43;;;20.60;95.80;;;;;;5037108;28;20671;-79
2022/08/01 04:05:28;;;;;;;1.80;0.60;;;20.70;94.30;;;;;;5030191;28;20198;-79
2022/08/01 04:08:01;;;;;;;1.38;0.40;;;20.80;93.80;;;;;;5033170;28;20193;-78
2022/08/01 04:10:32;;;;;;;2.15;0.40;;;20.80;91.20;;;;;;5035530;28;20296;-79
2022/08/01 04:13:03;;;;;;;0.68;0.40;;;20.90;84.30;;;;;;5034464;28;20224;-79
2022/08/01 04:15:34;;;;;;;1.15;0.40;;;21.00;86.60;;;;;;5032377;28;20736;-79
2022/08/01 04:18:07;;;;;;;0.90;0.35;;;20.90;83.70;;;;;;5033020;28;20223;-79
2022/08/01 04:20:37;;;;;;;2.20;0.32;;;21.00;81.60;;;;;;5033410;28;20632;-79
2022/08/01 04:23:08;;;;;;;0.68;0.50;;;21.00;82.00;;;;;;5034906;28;20683;-78
2022/08/01 04:25:42;;;;;;;1.63;0.50;;;21.00;82.20;;;;;;5034008;28;20197;-78
2022/08/01 04:28:16;;;;;;;0.93;0.50;;;20.90;77.80;;;;;;5031773;28;20209;-78
2022/08/01 04:30:48;;;;;;;0.77;0.50;;;20.90;79.00;;;;;;5037315;28;20228;-78
2022/08/01 04:33:22;;;;;;;1.13;0.40;;;20.80;76.60;;;;;;5029680;28;20707;-78
2022/08/01 04:35:53;;;;;;;0.60;0.40;;;20.80;76.00;;;;;;5035735;28;20225;-79
2022/08/01 04:38:27;;;;;;;0.40;0.25;;;20.70;76.50;;;;;;5030607;28;20660;-77
2022/08/01 04:40:58;;;;;;;1.20;0.40;;;20.70;74.50;;;;;;5034815;28;20211;-80
2022/08/01 04:43:29;;;;;;;0.40;0.40;;;20.70;73.70;;;;;;5030498;28;20193;-79
2022/08/01 04:46:03;;;;;;;1.88;0.40;;;20.70;74.80;;;;;;5033486;28;20197;-79
2022/08/01 04:48:38;;;;;;;3.33;0.40;;;20.70;75.00;;;;;;5028822;28;20200;-80
2022/08/01 04:51:17;;;;;;;0.60;0.28;;;20.70;75.80;;;;;;5032076;28;20211;-78
2022/08/01 04:53:50;;;;;;;0.80;0.40;;;20.70;74.90;;;;;;5032081;28;20365;-79
2022/08/01 04:56:21;;;;;;;0.38;0.30;;;20.70;71.80;;;;;;5029761;28;20220;-79
2022/08/01 04:59:39;;;;;;;0.57;0.40;;;20.70;67.10;;;;;;5033167;28;20193;-79
2022/08/01 05:01:43;;;;;;;0.98;0.40;;;20.70;70.10;;;;;;5030759;28;20199;-79
2022/08/01 05:04:15;;;;;;;0.47;0.30;;;20.60;65.00;;;;;;5036140;28;20267;-79
2022/08/01 05:06:46;;;;;;;0.63;0.40;;;20.50;62.80;;;;;;5031040;28;20197;-78
2022/08/01 05:09:17;;;;;;;1.17;0.40;;;20.60;63.90;;;;;;5030212;28;20189;-79
2022/08/01 05:11:48;;;;;;;0.40;0.40;;;20.60;62.50;;;;;;5031278;28;20243;-78
2022/08/01 05:14:19;;;;;;;1.02;0.35;;;20.50;63.30;;;;;;5032948;28;20193;-78
2022/08/01 05:16:50;;;;;;;0.30;0.20;;;20.60;65.20;;;;;;5033599;28;20196;-77
2022/08/01 05:19:22;;;;;;;0.77;0.32;;;20.50;65.00;;;;;;5029266;28;20292;-78
2022/08/01 05:21:53;;;;;;;0.75;0.40;;;20.50;66.10;;;;;;5031330;28;20263;-79
2022/08/01 05:24:24;;;;;;;0.30;0.25;;;20.60;67.50;;;;;;5033347;28;20193;-79
2022/08/01 05:26:55;;;;;;;0.38;0.20;;;20.60;66.20;;;;;;5029267;28;20280;-78
2022/08/01 05:29:25;;;;;;;1.33;0.40;;;20.60;64.40;;;;;;5032029;28;20200;-79
2022/08/01 05:31:57;;;;;;;0.50;0.30;;;20.60;62.20;;;;;;5033501;28;20231;-79
2022/08/01 05:34:30;;;;;;;1.08;0.40;;;20.60;61.60;;;;;;5029264;28;20224;-78
2022/08/01 05:37:01;;;;;;;0.30;0.20;;;20.60;59.80;;;;;;5029797;28;21823;-78
2022/08/01 05:39:31;;;;;;;0.30;0.30;;;20.50;59.20;;;;;;5032775;28;20211;-78
2022/08/01 05:42:02;;;;;;;0.77;0.30;;;20.50;60.50;;;;;;5033177;28;20203;-78
2022/08/01 05:44:33;;;;;;;0.75;0.30;;;20.50;60.40;;;;;;5034728;28;22338;-78
2022/08/01 05:47:04;;;;;;;0.52;0.30;;;20.50;60.80;;;;;;5035155;28;20193;-76
2022/08/01 05:49:37;;;;;;;0.40;0.40;;;20.50;59.30;;;;;;5032214;28;20236;-77
2022/08/01 05:52:08;;;;;;;1.40;0.30;;;20.40;60.70;;;;;;5036044;28;20217;-78
2022/08/01 05:54:39;;;;;;;0.55;0.32;;;20.30;61.00;;;;;;5039350;28;21799;-78
2022/08/01 05:57:10;;;;;;;0.55;0.22;;;20.30;59.30;;;;;;5049801;28;20220;-78
2022/08/01 05:59:41;;;;;;;0.43;0.28;;;20.30;58.90;;;;;;5046743;28;20195;-78
2022/08/01 06:02:11;;;;;;;0.20;0.20;;;20.30;58.30;;;;;;5052135;28;20265;-77
2022/08/01 06:04:44;;;;;;;1.67;0.30;;;20.30;59.30;;;;;;5043583;28;20197;-77
2022/08/01 06:07:15;;;;;;;0.45;0.32;;;20.30;59.30;;;;;;5052794;28;20208;-78
2022/08/01 06:09:46;;;;;;;0.57;0.40;;;20.30;58.80;;;;;;5036363;28;20189;-78
2022/08/01 06:12:17;;;;;;;1.30;0.57;;;20.40;59.30;;;;;;5051465;28;20600;-79
2022/08/01 06:14:47;;;;;;;2.40;0.50;;;20.30;59.70;;;;;;5049503;28;20201;-78
2022/08/01 06:17:18;;;;;;;0.35;0.32;;;20.30;58.60;;;;;;5049479;28;20235;-78
2022/08/01 06:19:51;;;;;;;1.55;0.40;;;20.30;58.90;;;;;;5053462;28;20216;-80
2022/08/01 06:22:21;;;;;;;0.45;0.22;;;20.50;60.10;;;;;;5052964;28;20204;-79
2022/08/01 06:24:52;;;;;;;0.47;0.30;;;20.40;58.40;;;;;;5048174;28;20197;-79
2022/08/01 06:27:24;;;;;;;0.40;0.40;;;20.40;58.00;;;;;;5052434;28;20238;-79
2022/08/01 06:29:55;;;;;;;0.75;0.30;;;20.40;59.30;;;;;;5045777;28;20197;-79
2022/08/01 06:32:29;;;;;;;0.47;0.25;;;20.50;58.80;;;;;;5049822;28;20220;-80
2022/08/01 06:35:01;;;;;;;0.32;0.32;;;20.60;58.30;;;;;;5048475;28;20204;-79
2022/08/01 06:37:35;;;;;;;0.35;0.35;;;20.60;56.70;;;;;;5052354;28;20675;-79
2022/08/01 06:40:06;;;;;;;1.35;0.35;;;20.60;57.70;;;;;;5052047;28;20219;-80
2022/08/01 06:42:38;;;;;;;1.65;0.28;;;20.50;58.20;;;;;;5052212;28;20282;-80
2022/08/01 06:45:10;;;;;;;1.25;0.38;;;20.30;55.80;;;;;;5044529;28;20205;-80
2022/08/01 06:47:41;;;;;;;0.80;0.47;;;20.10;57.50;;;;;;5050358;28;20197;-80
2022/08/01 06:50:15;;;;;;;2.33;0.47;;;20.00;57.90;;;;;;5045629;28;20208;-79
2022/08/01 06:52:46;;;;;;;0.30;0.30;;;19.90;57.70;;;;;;5047709;28;20590;-80
2022/08/01 06:55:16;;;;;;;0.50;0.40;;;19.70;57.70;;;;;;5044222;28;20188;-80
2022/08/01 06:57:51;;;;;;;0.63;0.30;;;19.70;58.50;;;;;;5052688;28;20266;-80
2022/08/01 07:00:23;;;;;;;0.73;0.30;;;19.60;57.80;;;;;;5044010;28;20192;-79
2022/08/01 07:02:55;;;;;;;1.48;0.35;;;19.40;58.40;;;;;;5049325;28;20189;-79
2022/08/01 07:05:27;;;;;;;0.57;0.47;;;19.40;58.10;;;;;;5047542;28;20209;-79
2022/08/01 07:07:58;;;;;;;0.95;0.50;;;19.20;59.10;;;;;;5045092;28;20688;-79
2022/08/01 07:10:30;;;;;;;1.33;0.40;;;19.20;59.50;;;;;;5049682;28;20293;-79
2022/08/01 07:13:00;;;;;;;1.23;0.50;;;19.20;59.60;;;;;;5052017;28;20208;-80
2022/08/01 07:15:31;;;;;;;0.98;0.70;;;19.10;60.90;;;;;;5051873;28;20238;-80
2022/08/01 07:18:04;;;;;;;2.00;0.70;;;19.10;61.80;;;;;;5063290;28;20230;-80
2022/08/01 07:20:37;;;;;;;1.35;0.50;;;19.00;62.80;;;;;;5058919;28;20220;-80
2022/08/01 07:23:07;;;;;;;0.73;0.40;;;18.90;62.40;;;;;;5046379;28;20194;-80
2022/08/01 07:25:38;;;;;;;1.05;0.40;;;18.90;64.10;;;;;;5050633;28;20197;-79
2022/08/01 07:28:09;;;;;;;2.13;0.50;;;18.80;64.50;;;;;;5051597;28;20206;-79
2022/08/01 07:30:41;;;;;;;0.40;0.40;;;18.70;65.70;;;;;;5051513;28;20196;-80
2022/08/01 07:33:12;;;;;;;0.32;0.30;;;18.70;66.60;;;;;;5051026;28;20225;-79
2022/08/01 07:35:45;;;;;;;0.40;0.40;;;18.70;66.60;;;;;;5051441;28;20232;-78
2022/08/01 07:38:16;;;;;;;0.55;0.40;;;18.60;67.00;;;;;;5050122;28;20724;-80
2022/08/01 07:40:47;;;;;;;0.82;0.55;;;18.50;67.50;;;;;;5046787;28;20197;-80
2022/08/01 07:43:18;;;;;;;1.02;0.43;;;18.50;69.40;;;;;;5051718;28;20193;-80
2022/08/01 07:45:48;;;;;;;0.95;0.40;;;18.50;70.60;;;;;;5046871;28;20205;-79
2022/08/01 07:48:21;;;;;;;0.68;0.50;;;18.40;72.90;;;;;;5051757;28;20196;-79
2022/08/01 07:50:53;;;;;;;1.48;0.70;;;18.30;74.30;;;;;;5056924;28;20207;-79
2022/08/01 07:53:24;;;;;;;0.82;0.50;;;18.30;76.10;;;;;;5057532;28;20626;-80
2022/08/01 07:55:55;;;;;;;1.67;0.55;;;18.20;75.40;;;;;;5056473;28;20215;-79
2022/08/01 07:58:27;;;;;;;0.80;0.80;;;18.20;75.20;;;;;;5044187;28;20295;-79
2022/08/01 08:00:58;;;;;;;0.90;0.77;;;18.10;75.40;;;;;;5058500;28;20191;-80
2022/08/01 08:03:28;;;;;;;2.35;0.75;;;18.00;74.40;;;;;;5042892;28;20200;-79
2022/08/01 08:06:01;;;;;;;1.02;0.73;;;18.00;73.60;;;;;;5051126;28;20193;-80
2022/08/01 08:08:34;;;;;;;0.82;0.60;;;18.00;74.90;;;;;;5059036;28;20196;-75
2022/08/01 08:11:05;;;;;;;0.82;0.55;;;17.90;74.70;;;;;;5047794;28;20231;-75
2022/08/01 08:13:35;;;;;;;1.15;0.73;;;17.90;76.20;;;;;;5047962;28;20254;-75
2022/08/01 08:16:06;;;;;;;0.68;0.60;;;17.90;77.00;;;;;;5048630;28;20193;-75
2022/08/01 08:18:38;;;;;;;1.35;0.80;;;17.90;78.40;;;;;;5048224;28;20224;-75
2022/08/01 08:21:10;;;;;;;0.90;0.65;;;17.80;79.50;;;;;;5048541;28;20199;-75
2022/08/01 08:26:27;;;;;;;1.23;0.90;;;17.80;79.20;;;;;;5047533;28;20722;-75
2022/08/01 08:28:58;;;;;;;2.30;1.17;;;17.70;78.70;;;;;;5041254;28;20247;-74
2022/08/01 08:31:29;;;;;;;1.77;1.00;;;17.60;79.60;;;;;;5048708;28;20211;-74
2022/08/01 08:34:00;;;;;;;2.85;1.10;;;17.60;79.90;;;;;;5050226;28;20216;-74
2022/08/01 08:36:33;;;;;;;1.42;1.13;;;17.50;80.70;;;;;;5050265;28;20193;-74
2022/08/01 08:39:03;;;;;;;1.08;1.00;;;17.50;81.30;;;;;;5049551;28;20228;-75
2022/08/01 08:41:35;;;;;;;4.32;1.20;;;17.50;81.00;;;;;;5049394;28;20651;-74
2022/08/01 08:44:06;;;;;;;1.27;0.85;;;17.40;81.30;;;;;;5051882;28;20197;-74
2022/08/01 08:46:42;;;;;;;1.15;0.77;;;17.40;82.20;;;;;;5047063;28;20247;-74
2022/08/01 08:49:13;;;;;;;4.53;1.30;;;17.30;84.10;;;;;;5042872;28;20204;-76
2022/08/01 08:51:49;;;;;;;3.70;1.63;;;17.30;85.70;;;;;;5049330;28;20196;-76
2022/08/01 08:54:21;;;;;;;4.65;2.00;;;17.30;86.00;;;;;;5048795;28;20227;-74
2022/08/01 08:56:53;;;;;;;2.53;1.40;;;17.30;86.60;;;;;;5049193;28;21043;-74
2022/08/01 08:59:26;;;;;;;4.50;1.75;;;17.20;86.40;;;;;;5050065;28;20195;-74
2022/08/01 09:01:57;;;;;;;2.05;1.10;;;17.20;87.90;;;;;;5041724;28;20565;-74
2022/08/01 09:04:27;;;;;;;5.85;1.40;;;17.20;89.50;;;;;;5044206;28;20197;-75
2022/08/01 09:07:00;;;;;;;2.45;1.38;;;17.20;89.10;;;;;;5045783;28;20220;-75
2022/08/01 09:09:30;;;;;;;2.72;1.10;;;17.10;90.20;;;;;;5046710;28;20197;-75
2022/08/01 09:12:02;;;;;;;3.47;1.20;;;17.10;90.60;;;;;;5044220;28;20255;-74
2022/08/01 09:14:34;;;;;;;1.85;1.30;;;17.10;90.00;;;;;;5052113;28;20217;-75
2022/08/01 09:17:08;;;;;;;2.17;1.30;;;17.00;90.40;;;;;;5047587;28;20228;-74
2022/08/01 09:19:40;;;;;;;3.17;1.40;;;17.10;90.80;;;;;;5045905;28;20197;-74
2022/08/01 09:22:17;;;;;;;1.58;0.98;;;17.10;90.30;;;;;;5051056;28;20223;-75
2022/08/01 09:25:02;;;;;;;1.95;1.00;;;17.00;90.20;;;;;;5053839;28;20192;-75
2022/08/01 09:27:33;;;;;;;2.15;1.10;;;17.00;90.20;;;;;;5050679;28;20199;-75
2022/08/01 09:30:14;;;;;;;1.63;1.00;;;16.90;90.00;;;;;;5040940;28;20586;-76
2022/08/01 09:33:00;;;;;;;1.30;1.10;;;16.90;90.10;;;;;;5052566;28;20224;-75
2022/08/01 09:35:34;;;;;;;1.67;1.20;;;16.90;90.20;;;;;;5048587;28;20192;-74
2022/08/01 09:38:20;;;;;;;1.85;1.05;;;16.90;90.50;;;;;;5052537;28;20197;-74
2022/08/01 09:40:52;;;;;;;1.50;0.95;;;16.90;90.10;;;;;;5051205;28;20192;-75
2022/08/01 09:43:24;;;;;;;1.52;0.90;;;16.80;89.80;;;;;;5044862;28;20200;-75
2022/08/01 09:45:55;;;;;;;1.75;1.08;;;16.80;87.90;;;;;;5052176;28;20203;-75
2022/08/01 09:48:27;;;;;;;2.28;1.10;;;16.80;88.80;;;;;;5052944;28;20189;-75
2022/08/01 09:50:58;;;;;;;1.23;0.90;;;16.70;89.20;;;;;;5053083;28;20185;-75
2022/08/01 09:53:42;;;;;;;1.30;0.85;;;16.70;90.10;;;;;;5049123;28;21005;-75
2022/08/01 09:56:14;;;;;;;1.25;0.90;;;16.70;90.50;;;;;;5052543;28;20840;-74
2022/08/01 09:58:58;;;;;;;3.55;1.83;;;16.70;91.10;;;;;;5053036;28;20211;-74
2022/08/01 10:01:29;;;;;;;2.95;1.33;;;16.70;90.50;;;;;;5041398;28;20209;-75
2022/08/01 10:04:13;;;;;;;2.03;1.33;;;16.70;90.80;;;;;;5041874;28;20197;-75
2022/08/01 10:06:45;;;;;;;2.80;1.30;;;16.70;91.00;;;;;;5045872;28;20656;-75
2022/08/01 10:09:28;;;;;;;2.65;1.20;;;16.70;90.30;;;;;;5049078;28;20194;-75
2022/08/01 10:12:00;;;;;;;1.15;0.70;;;16.60;90.90;;;;;;5046676;28;20197;-76
2022/08/01 10:14:32;;;;;;;1.77;1.20;;;16.50;90.50;;;;;;5050550;28;20699;-75
2022/08/01 10:17:04;;;;;;;2.67;1.20;;;16.50;90.30;;;;;;5052913;28;20223;-76
2022/08/01 10:19:35;;;;;;;2.22;1.20;;;16.50;90.60;;;;;;5051896;28;20199;-76
2022/08/01 10:22:09;;;;;;;2.40;1.15;;;16.50;90.70;;;;;;5052923;28;20204;-76
2022/08/01 10:24:43;;;;;;;1.27;0.80;;;16.50;90.30;;;;;;5054405;28;20218;-76
2022/08/01 10:27:14;;;;;;;1.98;1.10;;;16.40;90.50;;;;;;5051412;28;20602;-75
2022/08/01 10:29:48;;;;;;;2.88;1.27;;;16.40;90.40;;;;;;5047183;28;20205;-75
2022/08/01 10:32:20;;;;;;;1.77;1.25;;;16.40;90.90;;;;;;5051935;28;20343;-75
2022/08/01 10:34:52;;;;;;;2.00;1.00;;;16.30;90.80;;;;;;5052726;28;20224;-76
2022/08/01 10:37:24;;;;;;;1.77;0.93;;;16.30;90.70;;;;;;5052306;28;20193;-75
2022/08/01 10:39:57;;;;;;;1.33;0.90;;;16.20;90.70;;;;;;5052132;28;20211;-75
2022/08/01 10:42:28;;;;;;;1.13;1.02;;;16.20;91.20;;;;;;5052243;28;20592;-75
2022/08/01 10:44:59;;;;;;;1.52;0.70;;;16.10;90.90;;;;;;5047942;28;20203;-74
2022/08/01 10:47:39;;;;;;;2.05;0.90;;;16.10;91.20;;;;;;5041972;28;20200;-76
2022/08/01 10:50:19;;;;;;;1.25;0.80;;;16.10;91.00;;;;;;5050505;28;20258;-76
2022/08/01 10:53:08;;;;;;;3.85;0.90;;;16.00;91.10;;;;;;5046615;28;20809;-77
2022/08/01 10:55:52;;;;;;;1.90;0.90;;;16.00;91.60;;;;;;5051484;28;20290;-76
2022/08/01 10:58:28;;;;;;;1.00;0.80;;;16.00;91.20;;;;;;5043068;28;20614;-76
2022/08/01 11:01:18;;;;;;;2.00;1.30;;;16.00;91.20;;;;;;5052671;28;20667;-76
2022/08/01 11:04:05;;;;;;;1.70;0.90;;;16.00;91.70;;;;;;5040488;28;20576;-76
2022/08/01 11:06:55;;;;;;;1.70;1.20;;;16.00;92.20;;;;;;5049738;28;20244;-76
2022/08/01 11:09:31;;;;;;;1.65;0.88;;;16.10;91.50;;;;;;5042977;28;20200;-76
2022/08/01 11:12:10;;;;;;;3.67;1.00;;;16.00;92.20;;;;;;5045589;28;20591;-76
2022/08/01 11:15:12;;;;;;;2.45;0.93;;;16.00;91.90;;;;;;5051368;28;20224;-76
2022/08/01 11:17:47;;;;;;;1.55;1.13;;;16.00;92.20;;;;;;5055908;28;20231;-76
2022/08/01 11:20:18;;;;;;;3.78;1.45;;;15.90;93.50;;;;;;5044533;28;20218;-75
2022/08/01 11:23:29;;;;;;;1.98;0.93;;;15.90;94.70;;;;;;5050957;28;20193;-75
2022/08/01 11:26:14;;;;;;;1.25;0.98;;;15.90;94.40;;;;;;5049166;28;20323;-76
2022/08/01 11:28:51;;;;;;;1.63;1.00;;;15.80;94.10;;;;;;5048721;28;20197;-76
2022/08/01 11:31:32;;;;;;;2.72;0.82;;;15.70;94.10;;;;;;5051864;28;20567;-76
2022/08/01 11:34:03;;;;;;;1.50;0.88;;;15.60;94.70;;;;;;5047943;28;20232;-76
2022/08/01 11:36:34;;;;;;;4.20;1.42;;;15.60;94.90;;;;;;5048262;28;20211;-76
2022/08/01 11:39:19;;;;;;;2.22;1.10;;;15.50;95.20;;;;;;5044396;28;20686;-76
2022/08/01 11:41:54;;;;;;;1.67;0.90;;;15.50;96.00;;;;;;5067197;28;20575;-76
2022/08/01 11:44:27;;;;;;;1.30;0.93;;;15.50;97.10;;;;;;5046386;28;20193;-76
2022/08/01 11:47:02;;;;;;;0.90;0.80;;;15.50;98.70;;;;;;5049336;28;20192;-77
2022/08/01 11:49:54;;;;;;;3.28;1.13;;;15.50;99.90;;;;;;5044472;28;20646;-75
2022/08/01 11:52:33;;;;;;;2.95;1.20;;;15.60;99.90;;;;;;5046914;28;20212;-77
2022/08/01 11:55:10;;;;;;;1.75;1.00;;;15.50;99.90;;;;;;5043421;28;20710;-78
2022/08/01 11:57:41;;;;;;;1.65;1.08;;;15.40;99.90;;;;;;5043293;28;20192;-77
2022/08/01 12:00:18;;;;;;;3.67;1.20;;;15.30;99.90;;;;;;5047905;28;20201;-76
2022/08/01 12:02:58;;;;;;;1.92;1.10;;;15.30;99.90;;;;;;5044167;28;20630;-76
2022/08/01 12:05:29;;;;;;;3.67;1.23;;;15.30;99.90;;;;;;5050835;28;20197;-78
2022/08/01 12:08:00;;;;;;;3.33;1.30;;;15.20;99.90;;;;;;5039831;28;20695;-75
2022/08/01 12:10:35;;;;;;;3.08;1.30;;;15.20;99.90;;;;;;5038262;28;20197;-76
2022/08/01 12:13:08;;;;;;;3.88;1.02;;;15.10;99.90;;;;;;5042208;28;20283;-76
2022/08/01 12:15:43;;;;;;;2.63;1.20;;;15.00;99.90;;;;;;5045172;28;20196;-75
2022/08/01 12:18:13;;;;;;;2.75;1.25;;;15.00;99.90;;;;;;5044388;28;20302;-74
2022/08/01 12:20:46;;;;;;;1.45;1.30;;;15.00;99.90;;;;;;5047393;28;20250;-75
2022/08/01 12:23:20;;;;;;;5.05;1.48;;;15.00;99.90;;;;;;5050385;28;20262;-76
2022/08/01 12:25:55;;;;;;;2.15;1.30;;;15.10;99.90;;;;;;5047464;28;20204;-75
2022/08/01 12:28:26;;;;;;;1.83;1.27;;;15.00;99.90;;;;;;5048535;28;20215;-77
2022/08/01 12:30:58;;;;;;;2.00;1.17;;;15.00;99.90;;;;;;5049000;28;20193;-77
2022/08/01 12:33:29;;;;;;;2.75;1.40;;;15.00;99.90;;;;;;5049380;28;20200;-76
2022/08/01 12:36:00;;;;;;;2.63;1.02;;;15.00;99.90;;;;;;5045603;28;20287;-75
2022/08/01 12:38:32;;;;;;;1.88;1.10;;;15.00;99.90;;;;;;5044492;28;20197;-76
2022/08/01 12:41:04;;;;;;;2.65;1.20;;;14.90;99.90;;;;;;5043932;28;20622;-76
2022/08/01 12:43:35;;;;;;;2.92;1.10;;;14.90;99.90;;;;;;5043025;28;20193;-75
2022/08/01 12:46:11;;;;;;;1.00;1.00;;;14.90;99.90;;;;;;5043112;28;20254;-74
2022/08/01 12:48:42;;;;;;;2.50;1.30;;;14.80;99.90;;;;;;5043207;28;20271;-75
2022/08/01 12:51:13;;;;;;;2.30;1.60;;;14.80;99.90;;;;;;5044106;28;20759;-77
2022/08/01 12:53:44;;;;;;;3.03;1.17;;;14.80;99.90;;;;;;5042161;28;20200;-77
2022/08/01 12:56:14;;;;;;;2.22;1.33;;;14.70;99.90;;;;;;5045183;28;20192;-77
2022/08/01 12:58:45;;;;;;;2.53;1.60;;;14.70;99.90;;;;;;5038063;28;20200;-76
2022/08/01 13:01:17;;;;;;;2.10;1.27;;;14.70;99.90;;;;;;5043290;28;20192;-76
2022/08/01 13:04:03;;;;;;;2.28;1.60;;;14.60;99.90;;;;;;5044433;28;20192;-76
2022/08/01 13:06:35;;;;;;;3.80;1.50;;;14.60;99.90;;;;;;5041988;28;20786;-76
2022/08/01 13:09:13;;;;;;;3.38;1.67;;;14.60;99.90;;;;;;5037763;28;20212;-76
2022/08/01 13:11:45;;;;;;;1.85;1.30;;;14.50;99.90;;;;;;5043417;28;20208;-76
2022/08/01 13:14:30;;;;;;;2.92;1.30;;;14.40;99.90;;;;;;5042091;28;20778;-76
2022/08/01 13:17:04;;;;;;;2.25;1.40;;;14.30;99.90;;;;;;5040678;28;20243;-77
2022/08/01 13:19:49;;;;;;;2.42;1.40;;;14.30;99.90;;;;;;5048962;28;20205;-76
2022/08/01 13:22:20;;;;;;;3.13;1.45;;;14.30;99.90;;;;;;5047947;28;20691;-76
2022/08/01 13:24:50;;;;;;;1.20;1.08;;;14.20;99.90;;;;;;5049499;28;20197;-76